Time;durP1;ratioP1;P1;durP2;ratioP2;P2;SDS_P1;SDS_P2;PMS_P1;PMS_P2;Temp;Humidity;BMP_temperature;BMP_pressure;BME280_temperature;BME280_humidity;BME280_pressure;Samples;Min_cycle;Max_cycle;Signal;HPM_P1;HPM_P2
2022/01/25 00:09:31;;;;;;;45.45;22.00;;;4.60;99.90;;;;;;5047435;28;20044;-75
2022/01/25 00:28:39;;;;;;;44.33;22.23;;;4.50;99.90;;;;;;5046598;28;20151;-74
2022/01/25 00:31:17;;;;;;;44.17;22.58;;;4.50;99.90;;;;;;5046166;28;20209;-74
2022/01/25 00:33:48;;;;;;;42.97;22.67;;;4.50;99.90;;;;;;5046168;28;20055;-75
2022/01/25 00:36:17;;;;;;;46.30;21.55;;;4.50;99.90;;;;;;5046359;28;20045;-75
2022/01/25 00:38:43;;;;;;;45.83;22.10;;;4.50;99.90;;;;;;5046161;28;20099;-75
2022/01/25 00:41:10;;;;;;;57.75;24.50;;;4.50;99.90;;;;;;5045882;28;20064;-75
2022/01/25 00:43:36;;;;;;;47.95;23.92;;;4.50;99.90;;;;;;5046080;28;20060;-75
2022/01/25 00:46:07;;;;;;;50.65;24.83;;;4.70;99.90;;;;;;5029541;28;20479;-75
2022/01/25 00:56:45;;;;;;;46.10;24.10;;;4.50;99.90;;;;;;5001213;28;20064;-75
2022/01/25 00:59:23;;;;;;;50.47;24.60;;;4.50;99.90;;;;;;5046514;28;20179;-75
2022/01/25 01:01:57;;;;;;;51.15;22.73;;;4.50;99.90;;;;;;5047214;28;20136;-75
2022/01/25 01:04:22;;;;;;;46.50;22.30;;;4.50;99.90;;;;;;5045661;28;20045;-75
2022/01/25 01:06:50;;;;;;;42.30;22.65;;;4.50;99.90;;;;;;5045525;28;20557;-75
2022/01/25 01:09:18;;;;;;;45.67;22.75;;;4.50;99.90;;;;;;5046094;28;20053;-75
2022/01/25 01:12:00;;;;;;;55.90;25.10;;;4.50;99.90;;;;;;5046275;28;20060;-75
2022/01/25 01:38:42;;;;;;;49.30;23.85;;;4.40;99.90;;;;;;5045349;28;20057;-75
2022/01/25 01:41:21;;;;;;;46.55;22.48;;;4.50;99.90;;;;;;5045935;28;20049;-75
2022/01/25 01:43:53;;;;;;;57.53;23.63;;;4.50;99.90;;;;;;5045678;28;20565;-75
2022/01/25 01:46:33;;;;;;;51.92;24.23;;;4.50;99.90;;;;;;5045037;28;20049;-75
2022/01/25 01:49:02;;;;;;;47.35;22.80;;;4.50;99.90;;;;;;5046526;28;20076;-75
2022/01/25 01:51:33;;;;;;;49.63;24.50;;;4.50;99.90;;;;;;5028973;28;20446;-75
2022/01/25 01:54:05;;;;;;;47.33;23.63;;;5.70;99.90;;;;;;5046295;28;20128;-75
2022/01/25 01:56:31;;;;;;;48.47;24.33;;;4.50;99.90;;;;;;5046478;28;20045;-75
2022/01/25 01:59:04;;;;;;;49.70;23.80;;;4.50;99.90;;;;;;5044766;28;20060;-75
2022/01/25 02:01:31;;;;;;;47.83;23.35;;;4.50;99.90;;;;;;5046083;28;20055;-75
2022/01/25 02:03:58;;;;;;;45.17;21.60;;;4.50;99.90;;;;;;5045842;28;20045;-75
2022/01/25 02:06:24;;;;;;;51.30;23.35;;;4.50;99.90;;;;;;5044630;28;20049;-75
2022/01/25 02:08:50;;;;;;;55.13;25.08;;;4.50;99.90;;;;;;5046277;28;20040;-75
2022/01/25 02:11:16;;;;;;;50.35;23.70;;;4.50;99.90;;;;;;5044786;28;20072;-75
2022/01/25 02:13:42;;;;;;;49.88;24.52;;;4.50;99.90;;;;;;5028017;28;20471;-75
2022/01/25 02:16:18;;;;;;;52.13;24.05;;;4.50;99.90;;;;;;5011484;28;20033;-75
2022/01/25 02:24:12;;;;;;;48.78;23.27;;;4.40;99.90;;;;;;5044443;28;20471;-75
2022/01/25 02:26:38;;;;;;;48.53;23.23;;;4.50;99.90;;;;;;5045652;28;20104;-75
2022/01/25 02:29:03;;;;;;;46.25;24.33;;;5.40;99.90;;;;;;5043832;28;20106;-75
2022/01/25 02:31:29;;;;;;;51.63;24.35;;;4.40;99.90;;;;;;5027472;28;20072;-75
2022/01/25 02:33:55;;;;;;;52.85;24.02;;;4.40;99.90;;;;;;5043767;28;20052;-75
2022/01/25 02:36:27;;;;;;;47.00;24.30;;;4.40;99.90;;;;;;5044089;28;20048;-75
2022/01/25 02:38:57;;;;;;;47.38;23.65;;;4.40;99.90;;;;;;5028226;28;20135;-75
2022/01/25 02:41:24;;;;;;;53.53;23.88;;;4.40;99.90;;;;;;5043584;28;20052;-75
2022/01/25 02:43:52;;;;;;;48.45;24.10;;;4.40;99.90;;;;;;5044505;28;20041;-75
2022/01/25 02:48:29;;;;;;;44.60;22.73;;;4.40;99.90;;;;;;5043935;28;20045;-75
2022/01/25 02:49:08;;;;;;;50.85;23.83;;;4.40;99.90;;;;;;5044523;28;20048;-75
2022/01/25 02:51:41;;;;;;;47.25;21.85;;;4.40;99.90;;;;;;5027324;28;20075;-75
2022/01/25 02:54:09;;;;;;;55.22;23.85;;;4.40;99.90;;;;;;5043763;28;20596;-75
2022/01/25 02:56:37;;;;;;;46.42;22.55;;;4.40;99.90;;;;;;5043650;28;20052;-75
2022/01/25 02:59:05;;;;;;;48.55;23.58;;;4.40;99.90;;;;;;5043856;28;20041;-75
2022/01/25 03:01:31;;;;;;;48.75;23.77;;;4.40;99.90;;;;;;5045243;28;20045;-75
2022/01/25 03:03:57;;;;;;;52.38;24.83;;;4.40;99.90;;;;;;5044747;28;20119;-75
2022/01/25 03:06:24;;;;;;;50.40;23.65;;;4.40;99.90;;;;;;5045275;28;20120;-75
2022/01/25 03:08:50;;;;;;;53.05;24.15;;;4.40;99.90;;;;;;5045257;28;20068;-75
2022/01/25 03:11:18;;;;;;;52.08;25.00;;;4.40;99.90;;;;;;5045021;28;20080;-75
2022/01/25 03:13:50;;;;;;;47.80;23.42;;;4.40;99.90;;;;;;5043715;28;20390;-75
2022/01/25 03:16:28;;;;;;;49.72;22.90;;;4.40;99.90;;;;;;5043856;28;20056;-75
2022/01/25 03:18:56;;;;;;;50.85;24.58;;;4.40;99.90;;;;;;5045381;28;20037;-75
2022/01/25 03:23:56;;;;;;;52.53;24.92;;;4.60;99.90;;;;;;5043598;28;20132;-75
2022/01/25 03:26:24;;;;;;;45.47;23.17;;;4.40;99.90;;;;;;5043149;28;20052;-75
2022/01/25 03:28:50;;;;;;;50.03;24.75;;;4.40;99.90;;;;;;5043546;28;20053;-75
2022/01/25 03:31:16;;;;;;;47.88;24.27;;;4.40;99.90;;;;;;5043416;28;20053;-75
2022/01/25 03:33:43;;;;;;;50.67;23.90;;;4.40;99.90;;;;;;5043032;28;20127;-75
2022/01/25 03:36:10;;;;;;;59.33;25.65;;;4.40;99.90;;;;;;5027248;28;20079;-75
2022/01/25 03:38:40;;;;;;;49.72;24.13;;;4.40;99.90;;;;;;5026897;28;20459;-75
2022/01/25 03:41:09;;;;;;;49.88;23.90;;;4.50;99.90;;;;;;5044175;28;20568;-75
2022/01/25 03:43:36;;;;;;;48.55;22.80;;;4.40;99.90;;;;;;5043514;28;20114;-75
2022/01/25 03:46:13;;;;;;;46.50;25.33;;;4.40;99.90;;;;;;5043190;28;20049;-75
2022/01/25 03:51:24;;;;;;;51.38;25.63;;;4.40;99.90;;;;;;5043208;28;20505;-75
2022/01/25 03:53:51;;;;;;;49.08;24.90;;;4.40;99.90;;;;;;5044348;28;20044;-75
2022/01/25 03:56:17;;;;;;;46.88;23.17;;;4.50;99.90;;;;;;5026492;28;20045;-75
2022/01/25 03:58:42;;;;;;;54.42;26.05;;;4.40;99.90;;;;;;5026316;28;20045;-75
2022/01/25 04:01:08;;;;;;;51.92;25.17;;;4.60;99.90;;;;;;5044346;28;20049;-75
2022/01/25 04:03:40;;;;;;;59.35;26.63;;;4.30;99.90;;;;;;5043083;28;20080;-75
2022/01/25 04:06:05;;;;;;;51.70;25.33;;;4.90;99.90;;;;;;5044806;28;20421;-75
2022/01/25 04:08:33;;;;;;;49.47;24.73;;;4.30;99.90;;;;;;5043212;28;20052;-75
2022/01/25 04:11:00;;;;;;;52.30;23.58;;;4.30;99.90;;;;;;5044394;28;20049;-75
2022/01/25 04:13:26;;;;;;;49.03;24.15;;;4.30;99.90;;;;;;5043122;28;20222;-74
2022/01/25 04:15:55;;;;;;;48.45;25.13;;;4.30;99.90;;;;;;5010413;28;20557;-75
2022/01/25 04:18:34;;;;;;;52.60;25.17;;;4.30;99.90;;;;;;5044200;28;20056;-75
2022/01/25 04:26:13;;;;;;;52.72;26.10;;;4.30;99.90;;;;;;5042587;28;20529;-74
2022/01/25 04:28:39;;;;;;;53.75;26.25;;;4.30;99.90;;;;;;5042993;28;20038;-74
2022/01/25 04:31:05;;;;;;;51.60;24.92;;;4.30;99.90;;;;;;5044477;28;20078;-75
2022/01/25 04:33:40;;;;;;;49.03;23.75;;;4.30;99.90;;;;;;5042684;28;20405;-75
2022/01/25 04:49:36;;;;;;;46.83;23.08;;;4.30;99.90;;;;;;5032430;28;20052;-75
2022/01/25 04:52:07;;;;;;;52.35;24.58;;;4.30;99.90;;;;;;5045699;28;20044;-75
2022/01/25 04:55:03;;;;;;;50.17;24.42;;;4.40;99.90;;;;;;5046023;28;20084;-75
2022/01/25 04:57:44;;;;;;;48.03;23.17;;;5.50;99.90;;;;;;5031467;28;20041;-74
2022/01/25 05:00:22;;;;;;;50.78;24.48;;;5.20;99.90;;;;;;5016256;28;20045;-75
2022/01/25 05:02:53;;;;;;;54.97;24.88;;;4.30;99.90;;;;;;5047291;28;20048;-74
2022/01/25 05:05:31;;;;;;;49.95;24.05;;;4.30;99.90;;;;;;5047306;28;20107;-74
2022/01/25 05:08:07;;;;;;;49.58;24.83;;;4.70;99.90;;;;;;5046990;28;20052;-74
2022/01/25 05:10:44;;;;;;;50.10;23.73;;;4.30;99.90;;;;;;5029497;28;20102;-75
2022/01/25 05:13:29;;;;;;;53.47;25.98;;;4.30;99.90;;;;;;5045880;28;20053;-75
2022/01/25 05:16:16;;;;;;;53.90;24.40;;;4.30;99.90;;;;;;5047093;28;20045;-75
2022/01/25 05:18:48;;;;;;;53.40;25.02;;;4.30;99.90;;;;;;5046231;28;20051;-75
2022/01/25 05:23:59;;;;;;;50.30;25.17;;;4.30;99.90;;;;;;5031286;28;20055;-75
2022/01/25 05:26:26;;;;;;;48.05;24.23;;;4.30;99.90;;;;;;4995976;28;20330;-74
2022/01/25 05:28:52;;;;;;;50.63;23.83;;;4.80;99.90;;;;;;5046642;28;20041;-75
2022/01/25 05:31:19;;;;;;;51.22;24.65;;;4.30;99.90;;;;;;5045428;28;20048;-75
2022/01/25 05:33:45;;;;;;;49.00;24.98;;;4.40;99.90;;;;;;5028507;28;20041;-74
2022/01/25 05:36:10;;;;;;;48.85;24.00;;;4.30;99.90;;;;;;5045701;28;20398;-75
2022/01/25 05:38:36;;;;;;;45.55;23.80;;;4.30;99.90;;;;;;5045589;28;20048;-75
2022/01/25 05:41:03;;;;;;;50.97;24.88;;;4.40;99.90;;;;;;5046334;28;20468;-74
2022/01/25 05:46:18;;;;;;;49.75;23.40;;;4.30;99.90;;;;;;5044445;28;20110;-74
2022/01/25 05:48:46;;;;;;;56.13;25.05;;;4.30;99.90;;;;;;5028904;28;20106;-75
2022/01/25 05:51:12;;;;;;;51.10;24.88;;;4.40;99.90;;;;;;5045115;28;20117;-75
2022/01/25 05:53:40;;;;;;;49.13;24.30;;;5.30;99.90;;;;;;5044875;28;20041;-75
2022/01/25 05:56:06;;;;;;;52.08;24.63;;;4.40;99.90;;;;;;5044509;28;20063;-74
2022/01/25 05:58:31;;;;;;;47.95;24.23;;;4.40;99.90;;;;;;5045936;28;20041;-74
2022/01/25 06:00:57;;;;;;;53.08;24.63;;;4.40;99.90;;;;;;5046461;28;20037;-75
2022/01/25 06:03:23;;;;;;;51.78;23.08;;;4.40;99.90;;;;;;5045886;28;20076;-74
2022/01/25 06:05:49;;;;;;;53.88;24.92;;;4.40;99.90;;;;;;5046167;28;20498;-74
2022/01/25 06:08:14;;;;;;;55.15;27.10;;;4.40;99.90;;;;;;5044362;28;20041;-75
2022/01/25 06:10:40;;;;;;;53.63;25.30;;;4.40;99.90;;;;;;5044434;28;20048;-75
2022/01/25 06:13:06;;;;;;;51.95;24.27;;;4.40;99.90;;;;;;5044338;28;20048;-75
2022/01/25 06:15:32;;;;;;;51.67;25.17;;;4.40;99.90;;;;;;5044850;28;20045;-75
2022/01/25 06:17:58;;;;;;;50.03;26.00;;;4.50;99.90;;;;;;5046055;28;20056;-75
2022/01/25 06:20:23;;;;;;;46.70;22.77;;;4.40;99.90;;;;;;5043979;28;20045;-75
2022/01/25 06:22:49;;;;;;;52.50;25.27;;;4.90;99.90;;;;;;5044483;28;20528;-74
2022/01/25 06:25:16;;;;;;;52.28;24.40;;;4.40;99.90;;;;;;5043936;28;20056;-74
2022/01/25 06:27:43;;;;;;;54.28;23.95;;;4.50;99.90;;;;;;5044244;28;20127;-74
2022/01/25 06:30:11;;;;;;;51.58;24.30;;;4.40;99.90;;;;;;5043957;28;20156;-75
2022/01/25 06:32:37;;;;;;;51.00;24.52;;;4.50;99.90;;;;;;5044299;28;20045;-75
2022/01/25 06:35:05;;;;;;;52.15;24.55;;;4.40;99.90;;;;;;4994701;28;20040;-75
2022/01/25 06:37:31;;;;;;;49.28;24.15;;;4.50;99.90;;;;;;5043628;28;20504;-75
2022/01/25 06:39:58;;;;;;;44.88;22.42;;;4.70;99.90;;;;;;5045709;28;20135;-75
2022/01/25 06:42:29;;;;;;;54.13;24.02;;;4.50;99.90;;;;;;5044940;28;20183;-75
2022/01/25 06:44:59;;;;;;;55.10;26.00;;;4.50;99.90;;;;;;5045336;28;20487;-75
2022/01/25 06:47:25;;;;;;;56.30;25.17;;;4.70;99.90;;;;;;5044189;28;20405;-75
2022/01/25 06:49:50;;;;;;;55.10;24.85;;;4.50;99.90;;;;;;5045409;28;20045;-75
2022/01/25 06:52:16;;;;;;;51.45;24.45;;;4.50;99.90;;;;;;5045424;28;20041;-75
2022/01/25 06:54:42;;;;;;;52.10;24.70;;;4.50;99.90;;;;;;5044922;28;20051;-77
2022/01/25 06:57:08;;;;;;;49.45;23.45;;;4.50;99.90;;;;;;5027111;28;20056;-76
2022/01/25 06:59:34;;;;;;;53.40;24.98;;;4.50;99.90;;;;;;5043473;28;20056;-76
2022/01/25 07:02:00;;;;;;;55.50;25.80;;;4.50;99.90;;;;;;5044247;28;20120;-76
2022/01/25 07:04:26;;;;;;;59.80;24.85;;;4.50;99.90;;;;;;5010885;28;20550;-76
2022/01/25 07:06:52;;;;;;;53.03;25.38;;;4.50;99.90;;;;;;5043491;28;20422;-76
2022/01/25 07:09:17;;;;;;;48.22;23.38;;;4.50;99.90;;;;;;5043902;28;20045;-77
2022/01/25 07:11:43;;;;;;;50.55;23.95;;;4.50;99.90;;;;;;5026953;28;20509;-77
2022/01/25 07:14:09;;;;;;;46.88;23.30;;;4.50;99.90;;;;;;5045331;28;20446;-77
2022/01/25 07:16:35;;;;;;;54.15;25.38;;;4.50;99.90;;;;;;5044619;28;20219;-77
2022/01/25 07:19:00;;;;;;;49.78;24.23;;;4.50;99.90;;;;;;5043331;28;20433;-77
2022/01/25 07:21:26;;;;;;;56.25;26.27;;;4.50;99.90;;;;;;5044630;28;20076;-76
2022/01/25 07:23:52;;;;;;;52.67;25.63;;;4.50;99.90;;;;;;5043630;28;20040;-76
2022/01/25 07:26:18;;;;;;;50.88;25.15;;;4.50;99.90;;;;;;5044562;28;20052;-77
2022/01/25 07:28:43;;;;;;;52.60;24.58;;;4.50;99.90;;;;;;5042944;28;20047;-77
2022/01/25 07:31:10;;;;;;;58.53;25.15;;;4.40;99.90;;;;;;5043268;28;20099;-76
2022/01/25 07:33:36;;;;;;;51.42;25.00;;;4.40;99.90;;;;;;5043149;28;20037;-76
2022/01/25 07:36:01;;;;;;;53.35;25.58;;;4.40;99.90;;;;;;5043542;28;20049;-76
2022/01/25 07:38:27;;;;;;;52.58;26.05;;;4.50;99.90;;;;;;5042909;28;20076;-75
2022/01/25 07:40:53;;;;;;;48.30;24.50;;;4.40;99.90;;;;;;5026493;28;20064;-74
2022/01/25 07:43:19;;;;;;;49.63;24.25;;;4.40;99.90;;;;;;5026420;28;20508;-75
2022/01/25 07:45:51;;;;;;;49.67;23.52;;;4.40;99.90;;;;;;5009589;28;20045;-75
2022/01/25 07:48:17;;;;;;;56.13;26.77;;;4.40;99.90;;;;;;5027259;28;20045;-75
2022/01/25 07:50:43;;;;;;;57.92;25.50;;;4.40;99.90;;;;;;5042890;28;20531;-75
2022/01/25 07:53:09;;;;;;;54.55;25.45;;;4.40;99.90;;;;;;5042850;28;20132;-75
2022/01/25 07:55:35;;;;;;;59.90;26.85;;;4.40;99.90;;;;;;5026280;28;20143;-74
2022/01/25 07:58:01;;;;;;;51.28;25.92;;;4.40;99.90;;;;;;5042695;28;20041;-75
2022/01/25 08:00:26;;;;;;;53.85;25.75;;;4.40;99.90;;;;;;5042769;28;20056;-75
2022/01/25 08:02:52;;;;;;;54.47;25.52;;;4.40;99.90;;;;;;5026045;28;20053;-75
2022/01/25 08:05:20;;;;;;;56.38;24.85;;;4.40;99.90;;;;;;5026197;28;20037;-75
2022/01/25 08:07:46;;;;;;;52.95;24.85;;;4.50;99.90;;;;;;5025871;28;20085;-75
2022/01/25 08:10:12;;;;;;;50.35;23.45;;;4.40;99.90;;;;;;5029013;28;20053;-76
2022/01/25 08:12:38;;;;;;;54.95;26.50;;;4.40;99.90;;;;;;5029918;28;20041;-76
2022/01/25 08:15:05;;;;;;;56.58;26.35;;;4.40;99.90;;;;;;4997027;28;20041;-76
2022/01/25 08:17:31;;;;;;;56.92;26.85;;;4.40;99.90;;;;;;5029844;28;20053;-76
2022/01/25 08:19:58;;;;;;;58.95;26.90;;;4.40;99.90;;;;;;5046472;28;20041;-77
2022/01/25 08:22:24;;;;;;;52.03;24.58;;;4.40;99.90;;;;;;5029953;28;20048;-76
2022/01/25 08:24:51;;;;;;;51.72;25.13;;;4.50;99.90;;;;;;5046461;28;20409;-76
2022/01/25 08:27:20;;;;;;;52.55;25.52;;;4.40;99.90;;;;;;5030214;28;20045;-76
2022/01/25 08:29:49;;;;;;;49.15;25.35;;;4.40;99.90;;;;;;5029924;28;20033;-77
2022/01/25 08:32:16;;;;;;;62.58;27.13;;;5.20;99.90;;;;;;5046177;28;20049;-76
2022/01/25 08:34:41;;;;;;;56.28;25.83;;;4.40;99.90;;;;;;5030098;28;20186;-78
2022/01/25 08:37:08;;;;;;;57.08;27.20;;;4.40;99.90;;;;;;5013569;28;20489;-77
2022/01/25 08:39:33;;;;;;;56.58;27.73;;;4.40;99.90;;;;;;5046048;28;20542;-75
2022/01/25 08:41:59;;;;;;;58.20;26.15;;;4.70;99.90;;;;;;5045421;28;20136;-76
2022/01/25 08:44:25;;;;;;;64.38;26.42;;;4.90;99.90;;;;;;5029927;28;20121;-75
2022/01/25 08:46:51;;;;;;;55.00;27.38;;;4.40;99.90;;;;;;5029171;28;20045;-76
2022/01/25 08:49:17;;;;;;;56.35;27.15;;;4.40;99.90;;;;;;5045409;28;20048;-75
2022/01/25 08:51:43;;;;;;;55.95;27.15;;;4.40;99.90;;;;;;5045838;28;20080;-76
2022/01/25 08:54:09;;;;;;;59.20;29.02;;;4.40;99.90;;;;;;5047332;28;20493;-75
2022/01/25 08:56:35;;;;;;;58.97;27.80;;;4.40;99.90;;;;;;5029676;28;20538;-75
2022/01/25 08:59:01;;;;;;;61.17;28.88;;;4.40;99.90;;;;;;5029550;28;20052;-75
2022/01/25 09:01:27;;;;;;;60.78;28.50;;;4.40;99.90;;;;;;5029230;28;20186;-74
2022/01/25 09:03:56;;;;;;;59.65;26.15;;;4.40;99.90;;;;;;5045609;28;20049;-74
2022/01/25 09:06:22;;;;;;;60.60;27.55;;;4.40;99.90;;;;;;5012863;28;20045;-74
2022/01/25 09:08:51;;;;;;;58.88;26.75;;;5.30;99.90;;;;;;5045661;28;20051;-74
2022/01/25 09:11:17;;;;;;;58.70;27.52;;;4.40;99.90;;;;;;5045319;28;20241;-74
2022/01/25 09:13:43;;;;;;;60.97;29.23;;;4.40;99.90;;;;;;5046284;28;20239;-74
2022/01/25 09:16:08;;;;;;;62.20;28.15;;;4.50;99.90;;;;;;5045395;28;20472;-74
2022/01/25 09:18:36;;;;;;;62.05;27.95;;;4.50;99.90;;;;;;5045547;28;20084;-74
2022/01/25 09:21:03;;;;;;;53.08;27.85;;;4.50;99.90;;;;;;5045302;28;20095;-74
2022/01/25 09:23:28;;;;;;;55.08;26.15;;;4.40;99.90;;;;;;5046934;28;20048;-75
2022/01/25 09:25:55;;;;;;;56.85;27.58;;;4.50;99.90;;;;;;5044887;28;20497;-75
2022/01/25 09:28:21;;;;;;;68.00;27.25;;;4.50;99.90;;;;;;5046668;28;20037;-75
2022/01/25 09:30:47;;;;;;;67.65;28.17;;;4.50;99.90;;;;;;5046081;28;20351;-75
2022/01/25 09:33:13;;;;;;;56.15;26.38;;;4.50;99.90;;;;;;5045362;28;20052;-75
2022/01/25 09:35:39;;;;;;;56.67;25.85;;;4.50;99.90;;;;;;5028918;28;20109;-75
2022/01/25 09:38:05;;;;;;;60.70;28.20;;;5.20;99.90;;;;;;5028343;28;20033;-75
2022/01/25 09:40:31;;;;;;;58.83;28.83;;;4.50;99.90;;;;;;5028995;28;20037;-75
2022/01/25 09:42:58;;;;;;;59.47;27.63;;;4.80;99.90;;;;;;5044365;28;20057;-75
2022/01/25 09:45:25;;;;;;;58.42;27.52;;;4.50;99.90;;;;;;5044625;28;20052;-74
2022/01/25 09:47:51;;;;;;;56.38;26.98;;;5.50;99.90;;;;;;5028634;28;20383;-74
2022/01/25 09:50:17;;;;;;;56.47;25.73;;;4.50;99.90;;;;;;5044469;28;20052;-74
2022/01/25 09:52:44;;;;;;;56.50;26.50;;;4.60;99.90;;;;;;5044855;28;20041;-75
2022/01/25 09:55:16;;;;;;;59.25;26.90;;;4.60;99.90;;;;;;5045086;28;20072;-75
2022/01/25 09:57:42;;;;;;;55.67;26.50;;;4.60;99.90;;;;;;5044725;28;20049;-75
2022/01/25 10:00:12;;;;;;;58.08;27.30;;;4.60;99.90;;;;;;5044317;28;20052;-75
2022/01/25 10:02:39;;;;;;;57.05;26.33;;;4.60;99.90;;;;;;5044534;28;20051;-75
2022/01/25 10:05:25;;;;;;;53.00;25.88;;;4.50;99.90;;;;;;5044336;28;20140;-75
2022/01/25 10:07:59;;;;;;;58.60;27.23;;;4.60;99.90;;;;;;5044227;28;20151;-75
2022/01/25 10:10:27;;;;;;;57.45;27.05;;;4.50;99.90;;;;;;5028220;28;20045;-75
2022/01/25 10:12:56;;;;;;;53.35;25.65;;;4.60;99.90;;;;;;5045651;28;20486;-75
2022/01/25 10:15:24;;;;;;;57.72;25.85;;;4.60;99.90;;;;;;5044340;28;20052;-75
2022/01/25 10:17:50;;;;;;;54.03;26.40;;;6.00;99.90;;;;;;5028217;28;20052;-75
2022/01/25 10:20:29;;;;;;;59.53;26.83;;;5.00;99.90;;;;;;5011479;28;20045;-76
2022/01/25 10:22:57;;;;;;;62.60;27.90;;;4.60;99.90;;;;;;5027678;28;20127;-77
2022/01/25 10:25:42;;;;;;;57.03;27.73;;;4.60;99.90;;;;;;5043711;28;20059;-76
2022/01/25 10:28:11;;;;;;;61.67;26.17;;;4.60;99.90;;;;;;5044310;28;20406;-76
2022/01/25 10:30:53;;;;;;;63.85;27.52;;;4.60;99.90;;;;;;5045193;28;20044;-76
2022/01/25 10:33:51;;;;;;;63.78;27.27;;;4.60;99.90;;;;;;5042957;28;20513;-76
2022/01/25 10:36:22;;;;;;;58.30;28.13;;;4.70;99.90;;;;;;5044404;28;20077;-76
2022/01/25 10:38:53;;;;;;;59.15;26.88;;;4.70;99.90;;;;;;5043898;28;20053;-76
2022/01/25 10:41:24;;;;;;;55.20;24.85;;;4.70;99.90;;;;;;5027173;28;20310;-75
2022/01/25 10:43:51;;;;;;;60.50;27.80;;;4.70;99.90;;;;;;5044219;28;20396;-75
2022/01/25 10:46:43;;;;;;;57.13;26.55;;;4.70;99.90;;;;;;5026514;28;20041;-75
2022/01/25 10:49:12;;;;;;;55.85;25.23;;;4.70;99.90;;;;;;5024456;28;20049;-74
2022/01/25 10:51:45;;;;;;;57.58;24.08;;;6.00;99.90;;;;;;5027178;28;20041;-75
2022/01/25 10:54:15;;;;;;;;;;;4.70;99.90;;;;;;5027297;28;20505;-77
2022/01/25 10:56:58;;;;;;;54.60;25.83;;;4.70;99.90;;;;;;5043441;28;19974;-74
2022/01/25 10:59:32;;;;;;;57.97;27.45;;;4.80;99.90;;;;;;5043147;28;20044;-75
2022/01/25 11:02:02;;;;;;;48.72;24.25;;;4.80;99.90;;;;;;5027408;28;20041;-76
2022/01/25 11:04:34;;;;;;;58.83;26.83;;;4.80;99.90;;;;;;5043162;28;20047;-75
2022/01/25 11:07:11;;;;;;;62.65;27.15;;;5.20;99.90;;;;;;5026495;28;20048;-75
2022/01/25 11:09:43;;;;;;;61.20;27.88;;;4.80;99.90;;;;;;5027120;28;20044;-75
2022/01/25 11:12:13;;;;;;;62.60;28.08;;;4.80;99.90;;;;;;5043073;28;20106;-74
2022/01/25 11:14:58;;;;;;;54.63;24.58;;;4.80;99.90;;;;;;5043763;28;20040;-75
2022/01/25 11:17:29;;;;;;;53.83;24.77;;;4.80;99.90;;;;;;5026614;28;20049;-74
2022/01/25 11:19:56;;;;;;;56.10;26.58;;;4.80;99.90;;;;;;5026420;28;20040;-76
2022/01/25 11:22:23;;;;;;;58.58;26.20;;;4.80;99.90;;;;;;5043658;28;20512;-76
2022/01/25 11:24:51;;;;;;;58.42;24.08;;;5.70;99.90;;;;;;5044624;28;20095;-75
2022/01/25 11:27:20;;;;;;;61.33;27.55;;;4.80;99.90;;;;;;5045029;28;20037;-74
2022/01/25 11:29:47;;;;;;;60.97;25.42;;;4.80;99.90;;;;;;5042942;28;20052;-76
2022/01/25 11:32:16;;;;;;;57.38;25.95;;;4.80;99.90;;;;;;5043071;28;20572;-75
2022/01/25 11:34:44;;;;;;;61.22;26.33;;;4.90;99.90;;;;;;5026634;28;20041;-77
2022/01/25 11:37:11;;;;;;;58.30;26.58;;;4.80;99.90;;;;;;5043138;28;20406;-77
2022/01/25 11:43:17;;;;;;;55.33;25.17;;;3.70;99.90;;;;;;5045567;28;20132;-76
2022/01/25 11:45:49;;;;;;;56.08;25.73;;;4.80;99.90;;;;;;5030238;28;20048;-76
2022/01/25 11:48:22;;;;;;;58.03;26.92;;;4.80;99.90;;;;;;5047883;28;20047;-76
2022/01/25 11:50:48;;;;;;;57.55;25.17;;;5.20;99.90;;;;;;5048343;28;20486;-76
2022/01/25 11:53:17;;;;;;;57.90;27.25;;;4.80;99.90;;;;;;5048914;28;20048;-77
2022/01/25 11:55:51;;;;;;;60.83;26.85;;;4.80;99.90;;;;;;5048668;28;20045;-77
2022/01/25 11:58:28;;;;;;;60.75;25.75;;;4.80;99.90;;;;;;5048547;28;20118;-77
2022/01/25 12:00:55;;;;;;;56.40;26.95;;;5.80;99.90;;;;;;5048956;28;20120;-76
2022/01/25 12:03:32;;;;;;;58.55;27.27;;;4.80;99.90;;;;;;5048367;28;20045;-76
2022/01/25 12:06:08;;;;;;;56.70;27.17;;;4.80;99.90;;;;;;5047410;28;20128;-76
2022/01/25 12:09:07;;;;;;;58.97;25.70;;;4.80;99.90;;;;;;5048189;28;20049;-76
2022/01/25 12:11:42;;;;;;;55.67;27.02;;;4.80;99.90;;;;;;5029971;28;20090;-78
2022/01/25 12:14:55;;;;;;;66.13;27.10;;;4.80;99.90;;;;;;5046978;28;20588;-78
2022/01/25 12:17:26;;;;;;;61.08;27.33;;;4.80;99.90;;;;;;5018796;28;20136;-77
2022/01/25 12:19:57;;;;;;;60.83;27.17;;;4.80;99.90;;;;;;5030354;28;20124;-77
2022/01/25 12:22:26;;;;;;;55.75;25.15;;;4.80;99.90;;;;;;5047458;28;20402;-77
2022/01/25 12:25:06;;;;;;;57.83;27.10;;;4.80;99.90;;;;;;5046385;28;20064;-77
2022/01/25 12:27:39;;;;;;;58.17;26.10;;;4.80;99.90;;;;;;5029694;28;20509;-77
2022/01/25 12:30:16;;;;;;;67.50;26.10;;;4.80;99.90;;;;;;5046661;28;20060;-78
2022/01/25 12:33:00;;;;;;;58.72;26.38;;;4.80;99.90;;;;;;5046501;28;20136;-77
2022/01/25 12:35:40;;;;;;;75.50;28.52;;;4.80;99.90;;;;;;5046524;28;20053;-77
2022/01/25 12:38:08;;;;;;;60.85;25.92;;;4.70;99.90;;;;;;5046615;28;20402;-77
2022/01/25 12:40:48;;;;;;;57.83;26.33;;;6.00;99.90;;;;;;5046117;28;20041;-77
2022/01/25 12:43:23;;;;;;;57.33;26.15;;;4.70;99.90;;;;;;5029483;28;20053;-77
2022/01/25 12:45:54;;;;;;;54.13;25.70;;;4.70;99.90;;;;;;5029099;28;20107;-76
2022/01/25 12:48:25;;;;;;;62.45;26.73;;;4.70;99.90;;;;;;5046134;28;20037;-76
2022/01/25 12:50:54;;;;;;;61.42;27.77;;;4.70;99.90;;;;;;5045399;28;20045;-76
2022/01/25 12:53:26;;;;;;;65.28;26.95;;;4.70;99.90;;;;;;5045572;28;20083;-76
2022/01/25 12:55:55;;;;;;;56.53;24.77;;;4.80;99.90;;;;;;5044883;28;20494;-76
2022/01/25 12:58:27;;;;;;;58.97;27.55;;;5.00;99.90;;;;;;5029341;28;20067;-76
2022/01/25 13:00:55;;;;;;;60.20;26.23;;;4.80;99.90;;;;;;5046171;28;20128;-78
2022/01/25 13:03:31;;;;;;;67.05;27.40;;;5.20;99.90;;;;;;5046663;28;20478;-76
2022/01/25 13:06:02;;;;;;;62.50;26.25;;;4.80;99.90;;;;;;5047255;28;20083;-77
2022/01/25 13:08:43;;;;;;;57.08;26.40;;;4.70;99.90;;;;;;5047220;28;20102;-77
2022/01/25 13:14:31;;;;;;;64.63;26.92;;;4.80;99.90;;;;;;5041421;28;20055;-77
2022/01/25 13:17:03;;;;;;;62.22;26.25;;;4.80;99.90;;;;;;5045555;28;20052;-76
2022/01/25 13:19:41;;;;;;;57.73;25.93;;;4.80;99.90;;;;;;5028460;28;20132;-76
2022/01/25 13:22:19;;;;;;;56.72;25.33;;;4.80;99.90;;;;;;5046996;28;20071;-76
2022/01/25 13:25:13;;;;;;;55.78;25.17;;;4.80;99.90;;;;;;5046612;28;20048;-75
2022/01/25 13:27:53;;;;;;;57.63;24.67;;;4.80;99.90;;;;;;5045572;28;20060;-75
2022/01/25 13:30:45;;;;;;;58.25;26.42;;;4.90;99.90;;;;;;5045736;28;20048;-76
2022/01/25 13:33:21;;;;;;;57.35;24.73;;;4.90;99.90;;;;;;5045136;28;20406;-76
2022/01/25 13:35:52;;;;;;;59.03;26.30;;;4.90;99.90;;;;;;5028852;28;20155;-75
2022/01/25 13:38:19;;;;;;;65.35;27.02;;;5.00;99.90;;;;;;5044720;28;20053;-76
2022/01/25 13:40:56;;;;;;;58.05;26.80;;;5.60;99.90;;;;;;5046404;28;20052;-76
2022/01/25 13:45:51;;;;;;;63.20;27.05;;;3.90;99.90;;;;;;5044413;28;20045;-77
2022/01/25 13:48:19;;;;;;;55.03;25.27;;;4.90;99.90;;;;;;5045119;28;20071;-76
2022/01/25 13:50:46;;;;;;;62.72;27.13;;;4.90;99.90;;;;;;5028352;28;20056;-77
2022/01/25 13:53:11;;;;;;;57.45;27.10;;;4.00;99.90;;;;;;5028551;28;20041;-77
2022/01/25 13:55:38;;;;;;;62.65;27.30;;;4.90;99.90;;;;;;5045041;28;20124;-76
2022/01/25 13:58:19;;;;;;;60.85;26.45;;;6.10;99.90;;;;;;5028002;28;20040;-76
2022/01/25 14:00:45;;;;;;;57.03;25.42;;;4.80;99.90;;;;;;5046767;28;20434;-77
2022/01/25 14:03:15;;;;;;;59.10;26.13;;;4.80;99.90;;;;;;5044463;28;20606;-77
2022/01/25 14:05:41;;;;;;;54.88;26.48;;;4.80;99.90;;;;;;5045225;28;20045;-77
2022/01/25 14:08:07;;;;;;;63.60;26.15;;;4.80;99.90;;;;;;5028526;28;20393;-77
2022/01/25 14:10:33;;;;;;;59.47;25.60;;;4.80;99.90;;;;;;5046073;28;20041;-77
2022/01/25 14:24:18;;;;;;;54.08;25.90;;;5.20;99.90;;;;;;5028805;28;20056;-78
2022/01/25 14:26:44;;;;;;;58.33;24.67;;;4.70;99.90;;;;;;5044376;28;20041;-77
2022/01/25 14:29:16;;;;;;;54.92;26.15;;;4.70;99.90;;;;;;5044257;28;20048;-77
2022/01/25 14:31:45;;;;;;;59.17;25.02;;;4.70;99.90;;;;;;5044801;28;20202;-77
2022/01/25 14:34:14;;;;;;;62.65;25.63;;;4.70;99.90;;;;;;5044645;28;20127;-76
2022/01/25 14:36:43;;;;;;;62.20;27.45;;;4.60;99.90;;;;;;5045404;28;20037;-77
2022/01/25 14:39:10;;;;;;;57.97;26.40;;;4.70;99.90;;;;;;5045861;28;20120;-77
2022/01/25 14:41:37;;;;;;;60.70;26.45;;;4.60;99.90;;;;;;5027625;28;20049;-77
2022/01/25 14:44:09;;;;;;;64.45;27.85;;;4.70;99.90;;;;;;5044233;28;20517;-77